createdAt,value
2022-12-02T00:02:16.181Z,5.27
2022-12-02T00:04:42.922Z,5.32
2022-12-02T00:09:52.439Z,5.28
2022-12-02T00:12:27.944Z,5.22
2022-12-02T00:15:01.091Z,5.18
2022-12-02T00:17:28.449Z,5.25
2022-12-02T00:19:55.493Z,5.31
2022-12-02T00:22:22.275Z,5.31
2022-12-02T00:24:49.434Z,5.17
2022-12-02T00:27:16.358Z,5.14
2022-12-02T00:29:43.000Z,5.18
2022-12-02T00:32:09.812Z,5.16
2022-12-02T00:34:36.593Z,5.25
2022-12-02T00:37:03.195Z,5.19
2022-12-02T00:39:29.938Z,5.10
2022-12-02T00:41:57.028Z,5.28
2022-12-02T00:44:42.385Z,5.25
2022-12-02T00:47:09.070Z,5.27
2022-12-02T00:49:36.038Z,5.13
2022-12-02T00:52:02.765Z,5.07
2022-12-02T00:54:29.467Z,5.18
2022-12-02T00:56:56.155Z,5.44
2022-12-02T00:59:22.914Z,5.24
2022-12-02T01:01:49.714Z,5.34
2022-12-02T01:04:16.411Z,5.32
2022-12-02T01:06:43.208Z,5.32
2022-12-02T01:09:10.575Z,5.33
2022-12-02T01:11:37.245Z,5.25
2022-12-02T01:14:03.910Z,5.18
2022-12-02T01:16:30.641Z,5.23
2022-12-02T01:18:57.403Z,5.19
2022-12-02T01:21:24.095Z,5.16
2022-12-02T01:23:51.026Z,5.21
2022-12-02T01:26:17.745Z,5.19
2022-12-02T01:28:44.528Z,5.29
2022-12-02T01:31:11.463Z,5.25
2022-12-02T01:33:38.115Z,5.26
2022-12-02T01:36:05.009Z,5.26
2022-12-02T01:41:10.034Z,5.13
2022-12-02T01:43:36.711Z,5.22
2022-12-02T01:46:04.004Z,5.22
2022-12-02T01:48:31.349Z,5.19
2022-12-02T01:50:58.202Z,5.18
2022-12-02T01:53:25.210Z,5.23
2022-12-02T01:55:52.006Z,5.18
2022-12-02T01:58:23.538Z,5.12
2022-12-02T02:00:50.240Z,5.28
2022-12-02T02:03:16.948Z,5.37
2022-12-02T02:08:19.462Z,5.34
2022-12-02T02:10:47.671Z,5.36
2022-12-02T02:13:17.301Z,5.42
2022-12-02T02:18:23.069Z,5.29
2022-12-02T02:20:50.456Z,5.27
2022-12-02T02:23:26.000Z,5.29
2022-12-02T02:25:58.160Z,5.23
2022-12-02T02:28:25.227Z,5.20
2022-12-02T02:30:54.250Z,5.25
2022-12-02T02:33:22.474Z,5.21
2022-12-02T02:35:49.601Z,5.22
2022-12-02T02:38:20.287Z,5.17
2022-12-02T02:40:47.771Z,5.15
2022-12-02T02:43:16.430Z,5.19
2022-12-02T02:45:44.336Z,5.11
2022-12-02T02:48:13.238Z,5.11
2022-12-02T02:50:42.796Z,5.15
2022-12-02T02:53:10.580Z,5.18
2022-12-02T02:55:37.385Z,5.11
2022-12-02T02:58:15.937Z,5.17
2022-12-02T03:03:42.230Z,5.05
2022-12-02T03:06:11.056Z,5.05
2022-12-02T03:08:40.884Z,4.97
2022-12-02T03:11:07.993Z,5.01
2022-12-02T03:13:38.200Z,5.07
2022-12-02T03:16:09.477Z,5.02
2022-12-02T03:18:37.882Z,4.99
2022-12-02T03:21:05.651Z,5.12
2022-12-02T03:23:32.976Z,5.00
2022-12-02T03:26:00.270Z,5.07
2022-12-02T03:28:27.449Z,5.10
2022-12-02T03:30:54.220Z,5.12
2022-12-02T03:33:21.438Z,5.01
2022-12-02T03:35:49.438Z,5.03
2022-12-02T03:38:16.762Z,5.06
2022-12-02T03:40:43.552Z,5.01
2022-12-02T03:43:10.240Z,5.02
2022-12-02T03:45:36.971Z,5.03
2022-12-02T03:48:05.550Z,5.01
2022-12-02T03:50:32.337Z,5.00
2022-12-02T03:52:59.053Z,5.04
2022-12-02T03:55:25.729Z,4.98
2022-12-02T03:57:52.511Z,4.93
2022-12-02T04:00:19.555Z,4.98
2022-12-02T04:02:46.313Z,4.94
2022-12-02T04:05:13.032Z,4.97
2022-12-02T04:07:39.689Z,4.97
2022-12-02T04:10:07.238Z,4.92
2022-12-02T04:12:33.939Z,4.96
2022-12-02T04:15:00.569Z,4.98
2022-12-02T04:17:27.209Z,5.03
2022-12-02T04:19:53.854Z,5.01
2022-12-02T04:22:20.467Z,4.95
2022-12-02T04:24:47.180Z,5.13
2022-12-02T04:27:13.893Z,5.10
2022-12-02T04:29:40.568Z,5.03
2022-12-02T04:32:07.269Z,4.98
2022-12-02T04:34:33.928Z,5.07
2022-12-02T04:37:00.603Z,5.00
2022-12-02T04:39:27.270Z,4.91
2022-12-02T04:41:53.903Z,4.98
2022-12-02T04:44:20.502Z,4.88
2022-12-02T04:46:47.302Z,4.93
2022-12-02T04:49:14.134Z,4.93
2022-12-02T04:51:40.745Z,4.96
2022-12-02T04:54:07.501Z,4.98
2022-12-02T04:56:34.107Z,4.97
2022-12-02T04:59:01.032Z,4.93
2022-12-02T05:01:27.659Z,5.06
2022-12-02T05:03:54.354Z,4.99
2022-12-02T05:06:21.023Z,4.90
2022-12-02T05:08:47.643Z,4.92
2022-12-02T05:11:14.264Z,4.91
2022-12-02T05:13:40.869Z,4.92
2022-12-02T05:16:07.727Z,4.87
2022-12-02T05:18:34.461Z,4.87
2022-12-02T05:21:01.099Z,4.98
2022-12-02T05:23:27.802Z,4.97
2022-12-02T05:25:54.401Z,4.97
2022-12-02T05:28:21.064Z,4.93
2022-12-02T05:30:47.787Z,4.93
2022-12-02T05:33:14.531Z,5.03
2022-12-02T05:35:41.201Z,5.08
2022-12-02T05:38:07.781Z,4.99
2022-12-02T05:43:20.567Z,4.88
2022-12-02T05:45:47.639Z,4.95
2022-12-02T05:48:17.295Z,4.95
2022-12-02T05:50:45.181Z,4.94
2022-12-02T05:53:27.927Z,4.88
2022-12-02T05:55:56.154Z,4.95
2022-12-02T05:58:23.757Z,4.91
2022-12-02T06:00:56.369Z,4.94
2022-12-02T06:03:23.309Z,4.87
2022-12-02T06:05:53.389Z,4.89
2022-12-02T06:08:27.476Z,4.96
2022-12-02T06:10:59.487Z,4.91
2022-12-02T06:13:28.769Z,4.88
2022-12-02T06:15:56.194Z,4.87
2022-12-02T06:18:27.156Z,4.81
2022-12-02T06:20:57.742Z,4.91
2022-12-02T06:23:26.917Z,4.87
2022-12-02T06:25:54.688Z,4.92
2022-12-02T06:28:26.876Z,4.91
2022-12-02T06:31:02.200Z,4.91
2022-12-02T06:33:37.423Z,4.86
2022-12-02T06:36:09.825Z,4.78
2022-12-02T06:38:44.263Z,4.78
2022-12-02T06:41:19.576Z,4.85
2022-12-02T06:44:06.785Z,4.82
2022-12-02T06:46:35.364Z,4.80
2022-12-02T06:49:13.410Z,4.84
2022-12-02T06:51:40.025Z,4.84
2022-12-02T06:54:17.359Z,4.83
2022-12-02T06:56:44.001Z,4.88
2022-12-02T06:59:14.555Z,4.87
2022-12-02T07:01:43.410Z,4.99
2022-12-02T07:04:10.046Z,4.85
2022-12-02T07:06:40.777Z,4.77
2022-12-02T07:09:17.882Z,4.85
2022-12-02T07:11:51.767Z,4.85
2022-12-02T07:14:27.759Z,4.95
2022-12-02T07:17:13.594Z,4.88
2022-12-02T07:19:44.148Z,4.98
2022-12-02T07:22:23.307Z,5.00
2022-12-02T07:24:56.251Z,5.01
2022-12-02T07:27:31.270Z,4.90
2022-12-02T07:29:58.708Z,4.94
2022-12-02T07:32:25.391Z,4.97
2022-12-02T07:34:52.728Z,4.92
2022-12-02T07:37:19.854Z,4.91
2022-12-02T07:39:46.518Z,4.92
2022-12-02T07:42:14.978Z,5.00
2022-12-02T07:44:41.655Z,5.04
2022-12-02T07:47:08.512Z,5.02
2022-12-02T07:49:35.184Z,5.09
2022-12-02T07:52:02.895Z,5.01
2022-12-02T07:54:29.517Z,5.02
2022-12-02T07:56:56.173Z,4.98
2022-12-02T07:59:22.810Z,5.02
2022-12-02T08:01:49.597Z,4.96
2022-12-02T08:04:16.319Z,4.99
2022-12-02T08:06:43.097Z,5.05
2022-12-02T08:09:10.604Z,5.03
2022-12-02T08:11:37.555Z,4.99
2022-12-02T08:14:05.008Z,5.05
2022-12-02T08:16:31.844Z,5.03
2022-12-02T08:18:58.669Z,5.05
2022-12-02T08:21:25.281Z,5.05
2022-12-02T08:23:52.031Z,5.04
2022-12-02T08:26:18.721Z,5.09
2022-12-02T08:28:47.288Z,4.98
2022-12-02T08:31:17.721Z,4.94
2022-12-02T08:33:44.500Z,4.98
2022-12-02T08:36:11.183Z,5.01
2022-12-02T08:38:38.420Z,4.94
2022-12-02T08:41:09.294Z,5.10
2022-12-02T08:43:39.279Z,5.03
2022-12-02T08:46:06.987Z,4.98
2022-12-02T08:48:33.928Z,4.96
2022-12-02T08:51:00.835Z,4.98
2022-12-02T08:53:27.671Z,5.09
2022-12-02T08:55:54.327Z,5.12
2022-12-02T08:58:21.046Z,4.98
2022-12-02T09:00:47.649Z,5.00
2022-12-02T09:03:14.788Z,5.15
2022-12-02T09:05:41.943Z,5.11
2022-12-02T09:08:09.201Z,5.18
2022-12-02T09:10:36.251Z,5.26
2022-12-02T09:15:40.122Z,5.11
2022-12-02T09:18:11.175Z,5.19
2022-12-02T09:20:40.883Z,5.08
2022-12-02T09:23:07.492Z,5.40
2022-12-02T09:25:34.167Z,5.30
2022-12-02T09:30:32.212Z,5.39
2022-12-02T09:32:58.950Z,5.39
2022-12-02T09:35:25.649Z,5.27
2022-12-02T09:37:52.526Z,5.29
2022-12-02T09:40:19.677Z,5.28
2022-12-02T09:42:46.504Z,5.18
2022-12-02T09:45:13.557Z,5.21
2022-12-02T09:47:40.810Z,5.31
2022-12-02T09:50:08.827Z,5.27
2022-12-02T09:52:35.474Z,5.26
2022-12-02T09:55:02.531Z,5.13
2022-12-02T09:57:37.078Z,5.24
2022-12-02T10:00:12.780Z,5.17
2022-12-02T10:02:43.473Z,5.25
2022-12-02T10:05:16.865Z,5.18
2022-12-02T10:07:45.008Z,5.24
2022-12-02T10:10:18.676Z,5.31
2022-12-02T10:12:45.621Z,5.26
2022-12-02T10:15:14.577Z,5.23
2022-12-02T10:17:44.042Z,5.28
2022-12-02T10:20:20.337Z,5.29
2022-12-02T10:23:06.791Z,5.30
2022-12-02T10:25:34.131Z,5.34
2022-12-02T10:28:01.310Z,5.27
2022-12-02T10:30:29.069Z,5.38
2022-12-02T10:33:04.281Z,5.38
2022-12-02T10:35:48.466Z,5.23
2022-12-02T10:38:40.823Z,5.15
2022-12-02T10:41:16.851Z,5.27
2022-12-02T10:43:52.549Z,5.21
2022-12-02T10:46:21.050Z,5.17
2022-12-02T10:48:48.611Z,5.26
2022-12-02T10:53:57.277Z,5.22
2022-12-02T10:56:24.064Z,5.16
2022-12-02T10:58:51.458Z,5.14
2022-12-02T11:01:21.184Z,5.13
2022-12-02T11:03:48.774Z,5.19
2022-12-02T11:06:19.387Z,5.51
2022-12-02T11:08:48.193Z,5.27
2022-12-02T11:11:25.128Z,5.30
2022-12-02T11:14:03.565Z,5.30
2022-12-02T11:16:30.207Z,5.28
2022-12-02T11:19:08.816Z,5.26
2022-12-02T11:21:40.863Z,5.15
2022-12-02T11:24:23.109Z,5.29
2022-12-02T11:27:02.775Z,5.30
2022-12-02T11:29:39.701Z,5.34
2022-12-02T11:32:17.628Z,5.37
2022-12-02T11:40:22.859Z,5.24
2022-12-02T11:42:49.617Z,5.30
2022-12-02T11:45:16.258Z,5.35
2022-12-02T11:47:54.836Z,5.41
2022-12-02T11:50:39.639Z,5.28
2022-12-02T11:53:17.862Z,5.47
2022-12-02T11:55:47.460Z,5.32
2022-12-02T11:58:27.399Z,5.30
2022-12-02T12:01:15.372Z,5.23
2022-12-02T12:03:44.380Z,5.26
2022-12-02T12:06:14.534Z,5.22
2022-12-02T12:08:48.502Z,5.29
2022-12-02T12:11:17.944Z,5.40
2022-12-02T12:14:12.593Z,5.27
2022-12-02T12:16:40.939Z,5.39
2022-12-02T12:19:13.854Z,5.23
2022-12-02T12:21:48.795Z,5.17
2022-12-02T12:24:22.406Z,5.27
2022-12-02T12:29:28.151Z,5.29
2022-12-02T12:31:54.913Z,5.25
2022-12-02T12:34:22.041Z,5.25
2022-12-02T12:36:48.673Z,5.25
2022-12-02T12:39:16.213Z,5.23
2022-12-02T12:42:00.792Z,5.31
2022-12-02T12:44:31.200Z,5.27
2022-12-02T12:47:04.723Z,5.25
2022-12-02T12:49:32.824Z,5.34
2022-12-02T12:51:59.672Z,5.31
2022-12-02T12:54:26.525Z,5.30
2022-12-02T12:56:53.214Z,5.26
2022-12-02T12:59:19.837Z,5.42
2022-12-02T13:01:46.583Z,5.25
2022-12-02T13:04:13.295Z,5.26
2022-12-02T13:06:42.853Z,5.21
2022-12-02T13:09:10.732Z,5.26
2022-12-02T13:11:37.565Z,5.25
2022-12-02T13:14:04.374Z,5.21
2022-12-02T13:16:31.585Z,5.19
2022-12-02T13:18:58.410Z,5.22
2022-12-02T13:21:25.220Z,5.11
2022-12-02T13:23:51.864Z,5.17
2022-12-02T13:26:18.513Z,5.15
2022-12-02T13:28:45.314Z,5.13
2022-12-02T13:31:11.959Z,5.12
2022-12-02T13:33:38.674Z,5.15
2022-12-02T13:36:05.579Z,5.12
2022-12-02T13:38:32.206Z,5.14
2022-12-02T13:40:58.865Z,5.25
2022-12-02T13:43:25.517Z,5.14
2022-12-02T13:45:52.297Z,5.09
2022-12-02T13:48:19.020Z,5.13
2022-12-02T13:50:45.678Z,5.16
2022-12-02T13:53:12.338Z,5.09
2022-12-02T13:55:38.988Z,5.02
2022-12-02T13:58:05.689Z,5.01
2022-12-02T14:00:32.315Z,5.08
2022-12-02T14:02:58.996Z,5.04
2022-12-02T14:05:25.984Z,4.97
2022-12-02T14:07:52.733Z,5.05
2022-12-02T14:10:19.562Z,5.00
2022-12-02T14:12:46.159Z,4.94
2022-12-02T14:15:12.836Z,5.03
2022-12-02T14:17:39.522Z,5.14
2022-12-02T14:20:06.828Z,5.15
2022-12-02T14:22:34.019Z,5.12
2022-12-02T14:25:00.881Z,5.04
2022-12-02T14:27:27.561Z,5.02
2022-12-02T14:29:54.244Z,5.03
2022-12-02T14:32:20.955Z,5.07
2022-12-02T14:34:47.780Z,5.02
2022-12-02T14:42:22.952Z,5.04
2022-12-02T14:44:49.914Z,5.06
2022-12-02T14:47:16.773Z,5.15
2022-12-02T14:49:46.176Z,5.08
2022-12-02T14:52:12.850Z,4.84
2022-12-02T14:54:40.061Z,4.86
2022-12-02T14:57:06.779Z,4.85
2022-12-02T14:59:33.494Z,4.85
2022-12-02T15:02:00.331Z,4.77
2022-12-02T15:04:29.011Z,4.77
2022-12-02T15:06:55.964Z,4.72
2022-12-02T15:09:22.851Z,4.79
2022-12-02T15:11:50.810Z,4.95
2022-12-02T15:14:17.715Z,4.77
2022-12-02T15:16:44.512Z,4.93
2022-12-02T15:19:11.324Z,4.93
2022-12-02T15:21:37.965Z,4.88
2022-12-02T15:24:04.922Z,4.85
2022-12-02T15:26:31.572Z,5.00
2022-12-02T15:28:58.181Z,4.85
2022-12-02T15:31:24.905Z,4.89
2022-12-02T15:33:51.692Z,4.84
2022-12-02T15:36:18.294Z,4.77
2022-12-02T15:38:44.928Z,4.67
2022-12-02T15:41:11.638Z,4.96
2022-12-02T15:43:38.466Z,6.03
2022-12-02T15:46:05.176Z,6.43
2022-12-02T15:48:31.924Z,5.58
2022-12-02T15:50:58.634Z,5.49
2022-12-02T15:53:25.290Z,5.07
2022-12-02T15:55:52.410Z,4.99
2022-12-02T15:58:19.392Z,4.85
2022-12-02T16:00:46.110Z,4.74
2022-12-02T16:03:12.815Z,4.67
2022-12-02T16:05:39.526Z,4.75
2022-12-02T16:08:06.454Z,4.76
2022-12-02T16:10:33.210Z,4.76
2022-12-02T16:12:59.893Z,4.66
2022-12-02T16:15:26.675Z,4.67
2022-12-02T16:17:53.296Z,4.72
2022-12-02T16:20:19.919Z,4.81
2022-12-02T16:22:46.543Z,4.82
2022-12-02T16:25:13.093Z,4.80
2022-12-02T16:27:39.805Z,4.82
2022-12-02T16:30:07.283Z,4.77
2022-12-02T16:32:33.872Z,4.88
2022-12-02T16:35:00.515Z,4.74
2022-12-02T16:37:27.064Z,4.70
2022-12-02T16:39:53.749Z,4.83
2022-12-02T16:42:20.905Z,4.89
2022-12-02T16:44:51.980Z,4.77
2022-12-02T16:47:21.856Z,4.75
2022-12-02T16:49:48.688Z,4.72
2022-12-02T16:52:15.793Z,4.75
2022-12-02T16:54:42.539Z,4.75
2022-12-02T16:57:09.281Z,4.74
2022-12-02T16:59:35.947Z,4.72
2022-12-02T17:02:02.628Z,4.77
2022-12-02T17:04:29.288Z,4.78
2022-12-02T17:06:55.894Z,4.82
2022-12-02T17:09:22.657Z,4.77
2022-12-02T17:11:49.304Z,4.84
2022-12-02T17:14:15.934Z,4.91
2022-12-02T17:16:42.676Z,4.93
2022-12-02T17:19:09.652Z,5.04
2022-12-02T17:21:36.303Z,4.96
2022-12-02T17:24:03.064Z,4.97
2022-12-02T17:26:29.672Z,4.91
2022-12-02T17:28:56.369Z,4.90
2022-12-02T17:31:23.156Z,4.92
2022-12-02T17:33:49.868Z,4.84
2022-12-02T17:36:16.590Z,4.86
2022-12-02T17:38:56.269Z,4.84
2022-12-02T17:41:25.187Z,4.82
2022-12-02T17:43:52.043Z,4.71
2022-12-02T17:46:19.038Z,4.75
2022-12-02T17:48:46.208Z,4.85
2022-12-02T17:51:14.048Z,4.72
2022-12-02T17:53:41.199Z,4.72
2022-12-02T17:56:08.803Z,4.85
2022-12-02T17:58:36.355Z,4.86
2022-12-02T18:01:09.466Z,4.83
2022-12-02T18:03:37.841Z,4.82
2022-12-02T18:06:06.337Z,4.81
2022-12-02T18:08:33.609Z,4.84
2022-12-02T18:11:00.249Z,4.78
2022-12-02T18:13:27.016Z,4.82
2022-12-02T18:15:53.706Z,4.81
2022-12-02T18:18:20.448Z,4.72
2022-12-02T18:20:47.123Z,4.87
2022-12-02T18:23:14.096Z,4.81
2022-12-02T18:25:40.857Z,4.78
2022-12-02T18:28:08.591Z,4.85
2022-12-02T18:30:35.286Z,5.00
2022-12-02T18:33:02.029Z,4.89
2022-12-02T18:35:28.791Z,4.87
2022-12-02T18:37:55.495Z,4.79
2022-12-02T18:40:22.141Z,4.86
2022-12-02T18:42:48.854Z,4.84
2022-12-02T18:45:15.786Z,4.91
2022-12-02T18:47:42.479Z,4.93
2022-12-02T18:50:10.419Z,4.85
2022-12-02T18:52:37.276Z,4.78
2022-12-02T18:55:04.903Z,4.83
2022-12-02T18:57:32.010Z,4.80
2022-12-02T18:59:58.802Z,4.78
2022-12-02T19:02:25.599Z,4.81
2022-12-02T19:04:52.712Z,4.76
2022-12-02T19:07:19.790Z,4.73
2022-12-02T19:09:51.674Z,4.74
2022-12-02T19:12:20.407Z,4.70
2022-12-02T19:14:47.110Z,4.77
2022-12-02T19:17:13.721Z,4.68
2022-12-02T19:19:40.362Z,4.82
2022-12-02T19:22:07.034Z,4.95
2022-12-02T19:24:33.710Z,4.88
2022-12-02T19:27:00.482Z,5.09
2022-12-02T19:29:27.107Z,4.97
2022-12-02T19:31:53.796Z,4.96
2022-12-02T19:34:20.633Z,4.84
2022-12-02T19:36:47.247Z,4.85
2022-12-02T19:39:16.866Z,4.82
2022-12-02T19:41:43.552Z,4.80
2022-12-02T19:44:10.186Z,4.81
2022-12-02T19:46:37.031Z,4.82
2022-12-02T19:49:03.976Z,4.86
2022-12-02T19:51:30.627Z,4.76
2022-12-02T19:53:58.590Z,4.90
2022-12-02T19:56:25.878Z,4.79
2022-12-02T19:58:52.527Z,4.93
2022-12-02T20:01:19.688Z,4.92
2022-12-02T20:03:46.424Z,4.76
2022-12-02T20:06:13.083Z,4.90
2022-12-02T20:08:39.804Z,4.90
2022-12-02T20:13:38.144Z,5.00
2022-12-02T20:16:04.860Z,4.86
2022-12-02T20:18:31.586Z,4.88
2022-12-02T20:20:58.168Z,4.83
2022-12-02T20:23:24.912Z,4.75
2022-12-02T20:25:51.592Z,4.74
2022-12-02T20:28:18.298Z,4.96
2022-12-02T20:30:44.895Z,4.94
2022-12-02T20:33:11.768Z,5.00
2022-12-02T20:35:38.389Z,5.01
2022-12-02T20:38:05.110Z,4.90
2022-12-02T20:40:31.766Z,4.76
2022-12-02T20:42:58.439Z,4.76
2022-12-02T20:45:25.353Z,4.77
2022-12-02T20:47:52.006Z,4.95
2022-12-02T20:50:18.580Z,5.05
2022-12-02T20:52:52.870Z,5.07
2022-12-02T20:55:20.423Z,5.06
2022-12-02T20:57:48.112Z,4.97
2022-12-02T21:00:15.627Z,4.85
2022-12-02T21:02:42.395Z,4.93
2022-12-02T21:05:10.142Z,4.97
2022-12-02T21:07:37.725Z,5.04
2022-12-02T21:10:05.211Z,5.02
2022-12-02T21:12:31.852Z,4.94
2022-12-02T21:14:58.621Z,4.82
2022-12-02T21:17:26.944Z,4.79
2022-12-02T21:19:53.493Z,4.96
2022-12-02T21:22:20.144Z,4.88
2022-12-02T21:24:46.809Z,4.80
2022-12-02T21:27:13.553Z,4.70
2022-12-02T21:29:40.143Z,4.75
2022-12-02T21:32:06.744Z,4.60
2022-12-02T21:34:33.396Z,4.60
2022-12-02T21:36:59.991Z,4.64
2022-12-02T21:39:26.656Z,4.64
2022-12-02T21:41:53.305Z,4.66
2022-12-02T21:46:51.781Z,4.77
2022-12-02T21:49:18.574Z,4.71
2022-12-02T21:51:45.192Z,4.76
2022-12-02T21:54:11.915Z,4.56
2022-12-02T21:56:38.535Z,4.35
2022-12-02T21:59:05.230Z,4.29
2022-12-02T22:01:38.187Z,4.13
2022-12-02T22:04:05.856Z,4.01
2022-12-02T22:06:32.502Z,4.03
2022-12-02T22:08:59.170Z,3.93
2022-12-02T22:13:57.202Z,4.03
2022-12-02T22:16:24.087Z,4.06
2022-12-02T22:18:50.736Z,3.95
2022-12-02T22:21:17.327Z,4.01
2022-12-02T22:26:21.688Z,4.11
2022-12-02T22:28:48.347Z,4.16
2022-12-02T22:31:15.110Z,3.92
2022-12-02T22:33:41.854Z,4.10
2022-12-02T22:36:08.743Z,4.03
2022-12-02T22:38:36.231Z,3.97
2022-12-02T22:41:02.974Z,4.10
2022-12-02T22:43:29.638Z,4.16
2022-12-02T22:45:56.363Z,3.99
2022-12-02T22:48:23.120Z,4.00
2022-12-02T22:50:49.731Z,4.05
2022-12-02T22:53:16.876Z,4.06
2022-12-02T22:55:43.559Z,4.09
2022-12-02T22:58:10.229Z,4.03
2022-12-02T23:00:36.865Z,4.12
2022-12-02T23:03:03.770Z,4.03
2022-12-02T23:05:30.663Z,4.09
2022-12-02T23:07:57.447Z,4.09
2022-12-02T23:10:24.314Z,4.16
2022-12-02T23:12:51.017Z,4.15
2022-12-02T23:18:05.051Z,4.14
2022-12-02T23:20:31.824Z,4.24
2022-12-02T23:22:58.449Z,4.12
2022-12-02T23:25:25.106Z,4.26
2022-12-02T23:27:51.826Z,4.28
2022-12-02T23:30:21.405Z,4.34
2022-12-02T23:32:52.744Z,4.25
2022-12-02T23:35:19.364Z,4.19
2022-12-02T23:37:45.991Z,4.16
2022-12-02T23:40:13.180Z,4.12
2022-12-02T23:42:40.073Z,4.27
2022-12-02T23:47:45.418Z,4.16
2022-12-02T23:50:12.608Z,4.20
2022-12-02T23:52:39.240Z,4.22
2022-12-02T23:55:06.501Z,4.06
2022-12-02T23:57:33.113Z,4.05
2022-12-02T23:59:59.833Z,4.10
